THY8ED LOWS-LTFM
Flight info
| Callsign | THY8ED |
|---|---|
| Flight time | N/A |
| Altitude | 39000 |
| Route | NEMAL DCT LIMRA DCT DIMLO DCT BABIT DCT NISVA L614 GERGI T391 AYTEK |
| Aircraft | B738/M-SDE2E3FGHIRWXY/LB1 |
Departure
| Time | 2026-04-29 07:11 |
|---|---|
| Airport | Salzburg Airport (LOWS) |
Arrival
| Time | N/A |
|---|---|
| Airport | İstanbul Airport (LTFM) |
| Time | Latitude | Longitude | Altitude | Speed | Heading |
|---|---|---|---|---|---|
| 2026-04-29 07:01 | 47.78973 | 13.00030 | 1394 ft | 0 kts | 283° |
| 2026-04-29 07:07 | 47.78973 | 13.00029 | 1394 ft | 0 kts | 283° |
| 2026-04-29 07:07 | 47.78985 | 13.00015 | 1421 ft | 5 kts | 339° |
| 2026-04-29 07:08 | 47.79001 | 13.00068 | 1421 ft | 10 kts | 107° |
| 2026-04-29 07:08 | 47.78961 | 13.00186 | 1421 ft | 16 kts | 102° |
| 2026-04-29 07:08 | 47.78935 | 13.00370 | 1419 ft | 21 kts | 139° |
| 2026-04-29 07:08 | 47.78788 | 13.00471 | 1419 ft | 26 kts | 157° |
| 2026-04-29 07:09 | 47.78605 | 13.00588 | 1419 ft | 31 kts | 157° |
| 2026-04-29 07:09 | 47.78407 | 13.00713 | 1419 ft | 31 kts | 156° |
| 2026-04-29 07:09 | 47.78260 | 13.00809 | 1419 ft | 21 kts | 155° |
| 2026-04-29 07:09 | 47.78185 | 13.00965 | 1418 ft | 13 kts | 83° |
| 2026-04-29 07:10 | 47.78225 | 13.01075 | 1422 ft | 12 kts | 22° |
| 2026-04-29 07:10 | 47.78281 | 13.01059 | 1419 ft | 0 kts | 337° |
| 2026-04-29 07:10 | 47.78292 | 13.01052 | 1418 ft | 14 kts | 336° |
| 2026-04-29 07:10 | 47.78608 | 13.00851 | 1423 ft | 84 kts | 337° |
| 2026-04-29 07:11 | 47.79351 | 13.00382 | 1422 ft | 144 kts | 337° |
| 2026-04-29 07:11 | 47.80374 | 12.99723 | 1795 ft | 163 kts | 339° |
| 2026-04-29 07:11 | 47.81409 | 12.99032 | 2482 ft | 170 kts | 341° |
| 2026-04-29 07:11 | 47.82555 | 12.98906 | 3145 ft | 164 kts | 26° |
| 2026-04-29 07:12 | 47.83506 | 12.99818 | 3809 ft | 170 kts | 39° |
| 2026-04-29 07:12 | 47.84564 | 13.00928 | 4083 ft | 199 kts | 38° |
| 2026-04-29 07:12 | 47.85757 | 13.02178 | 4278 ft | 225 kts | 38° |
| 2026-04-29 07:12 | 47.87119 | 13.03600 | 4496 ft | 249 kts | 36° |
| 2026-04-29 07:13 | 47.88550 | 13.05081 | 5165 ft | 257 kts | 37° |
| 2026-04-29 07:13 | 47.90021 | 13.06636 | 5990 ft | 260 kts | 37° |
| 2026-04-29 07:13 | 47.91408 | 13.08157 | 6864 ft | 258 kts | 43° |
| 2026-04-29 07:13 | 47.92479 | 13.10282 | 7626 ft | 260 kts | 66° |
| 2026-04-29 07:14 | 47.92926 | 13.12937 | 8214 ft | 270 kts | 86° |
| 2026-04-29 07:14 | 47.92884 | 13.15709 | 9016 ft | 274 kts | 90° |
| 2026-04-29 07:14 | 47.92790 | 13.18604 | 9654 ft | 282 kts | 91° |
| 2026-04-29 07:14 | 47.92688 | 13.21576 | 10278 ft | 290 kts | 91° |
| 2026-04-29 07:15 | 47.92584 | 13.24652 | 10573 ft | 311 kts | 90° |
| 2026-04-29 07:15 | 47.92477 | 13.27988 | 10772 ft | 333 kts | 90° |
| 2026-04-29 07:15 | 47.92367 | 13.31490 | 11335 ft | 341 kts | 90° |
| 2026-04-29 07:15 | 47.92255 | 13.35059 | 12016 ft | 346 kts | 90° |
| 2026-04-29 07:16 | 47.92144 | 13.38648 | 12640 ft | 353 kts | 90° |
| 2026-04-29 07:16 | 47.92032 | 13.42344 | 13343 ft | 357 kts | 89° |
| 2026-04-29 07:16 | 47.91917 | 13.46052 | 14242 ft | 355 kts | 90° |
| 2026-04-29 07:16 | 47.91801 | 13.49765 | 14923 ft | 360 kts | 90° |
| 2026-04-29 07:17 | 47.91732 | 13.53550 | 15497 ft | 367 kts | 88° |
| 2026-04-29 07:17 | 47.91717 | 13.57323 | 16254 ft | 369 kts | 88° |
| 2026-04-29 07:17 | 47.91716 | 13.61188 | 16904 ft | 375 kts | 87° |
| 2026-04-29 07:17 | 47.91716 | 13.65109 | 17541 ft | 381 kts | 88° |
| 2026-04-29 07:18 | 47.91709 | 13.69005 | 18196 ft | 386 kts | 88° |
| 2026-04-29 07:18 | 47.91696 | 13.73036 | 18796 ft | 390 kts | 88° |
| 2026-04-29 07:18 | 47.91678 | 13.77061 | 19292 ft | 397 kts | 88° |
| 2026-04-29 07:18 | 47.91656 | 13.81228 | 19779 ft | 403 kts | 89° |
| 2026-04-29 07:19 | 47.91630 | 13.85455 | 20299 ft | 409 kts | 89° |
| 2026-04-29 07:19 | 47.91602 | 13.89724 | 20810 ft | 414 kts | 89° |
| 2026-04-29 07:19 | 47.91572 | 13.94004 | 21290 ft | 420 kts | 89° |
| 2026-04-29 07:19 | 47.91540 | 13.98411 | 21753 ft | 427 kts | 89° |
| 2026-04-29 07:20 | 47.91506 | 14.02869 | 22270 ft | 431 kts | 89° |
| 2026-04-29 07:20 | 47.91471 | 14.07322 | 22762 ft | 436 kts | 89° |
| 2026-04-29 07:20 | 47.91433 | 14.11923 | 23231 ft | 443 kts | 89° |
| 2026-04-29 07:20 | 47.91392 | 14.16508 | 23619 ft | 450 kts | 89° |
| 2026-04-29 07:21 | 47.91347 | 14.21222 | 24045 ft | 454 kts | 89° |
| 2026-04-29 07:21 | 47.91302 | 14.25891 | 24503 ft | 456 kts | 89° |
| 2026-04-29 07:21 | 47.91254 | 14.30661 | 24974 ft | 459 kts | 89° |
| 2026-04-29 07:21 | 47.91205 | 14.35440 | 25389 ft | 462 kts | 89° |
| 2026-04-29 07:22 | 47.91051 | 14.40197 | 25747 ft | 468 kts | 97° |
| 2026-04-29 07:22 | 47.90182 | 14.44899 | 26072 ft | 472 kts | 114° |
| 2026-04-29 07:22 | 47.88584 | 14.49180 | 26484 ft | 472 kts | 128° |
| 2026-04-29 07:22 | 47.86448 | 14.52899 | 26902 ft | 472 kts | 135° |
| 2026-04-29 07:23 | 47.84233 | 14.56485 | 27157 ft | 479 kts | 135° |
| 2026-04-29 07:23 | 47.81953 | 14.60158 | 27506 ft | 482 kts | 135° |
| 2026-04-29 07:23 | 47.79673 | 14.63850 | 27869 ft | 484 kts | 135° |
| 2026-04-29 07:23 | 47.77423 | 14.67528 | 28214 ft | 487 kts | 135° |
| 2026-04-29 07:24 | 47.75141 | 14.71276 | 28541 ft | 490 kts | 135° |
| 2026-04-29 07:24 | 47.72837 | 14.75058 | 28859 ft | 494 kts | 135° |
| 2026-04-29 07:24 | 47.70529 | 14.78861 | 29182 ft | 496 kts | 135° |
| 2026-04-29 07:24 | 47.68241 | 14.82636 | 29511 ft | 499 kts | 134° |
| 2026-04-29 07:25 | 47.65903 | 14.86488 | 29784 ft | 504 kts | 134° |
| 2026-04-29 07:25 | 47.63531 | 14.90390 | 30047 ft | 508 kts | 134° |
| 2026-04-29 07:25 | 47.61159 | 14.94285 | 30362 ft | 510 kts | 134° |
| 2026-04-29 07:25 | 47.58773 | 14.98193 | 30662 ft | 512 kts | 134° |
| 2026-04-29 07:26 | 47.56400 | 15.02076 | 30943 ft | 513 kts | 134° |
| 2026-04-29 07:26 | 47.53999 | 15.05996 | 31246 ft | 515 kts | 134° |
| 2026-04-29 07:26 | 47.51586 | 15.09931 | 31517 ft | 517 kts | 134° |
| 2026-04-29 07:26 | 47.49162 | 15.13877 | 31773 ft | 518 kts | 134° |
| 2026-04-29 07:27 | 47.46723 | 15.17841 | 32096 ft | 519 kts | 134° |
| 2026-04-29 07:27 | 47.44328 | 15.21729 | 32519 ft | 516 kts | 134° |
| 2026-04-29 07:27 | 47.41908 | 15.25654 | 32915 ft | 514 kts | 134° |
| 2026-04-29 07:27 | 47.39498 | 15.29558 | 33204 ft | 514 kts | 135° |
| 2026-04-29 07:28 | 47.37078 | 15.33468 | 33523 ft | 515 kts | 135° |
| 2026-04-29 07:28 | 47.34661 | 15.37367 | 33839 ft | 515 kts | 135° |
| 2026-04-29 07:28 | 47.32271 | 15.41217 | 34221 ft | 513 kts | 135° |
| 2026-04-29 07:28 | 47.29853 | 15.45108 | 34539 ft | 512 kts | 135° |
| 2026-04-29 07:29 | 47.27445 | 15.48978 | 34827 ft | 511 kts | 135° |
| 2026-04-29 07:29 | 47.25070 | 15.52789 | 35100 ft | 511 kts | 135° |
| 2026-04-29 07:29 | 47.22656 | 15.56656 | 35343 ft | 511 kts | 135° |
| 2026-04-29 07:29 | 47.20254 | 15.60498 | 35615 ft | 509 kts | 135° |
| 2026-04-29 07:30 | 47.17915 | 15.64236 | 35900 ft | 508 kts | 135° |
| 2026-04-29 07:30 | 47.15549 | 15.68011 | 36185 ft | 507 kts | 135° |
| 2026-04-29 07:30 | 47.13159 | 15.71818 | 36434 ft | 506 kts | 134° |
| 2026-04-29 07:31 | 47.08371 | 15.79428 | 36903 ft | 506 kts | 134° |
| 2026-04-29 07:31 | 47.05976 | 15.83227 | 37174 ft | 506 kts | 134° |
| 2026-04-29 07:31 | 47.03613 | 15.86970 | 37372 ft | 505 kts | 134° |
| 2026-04-29 07:31 | 47.01219 | 15.90758 | 37609 ft | 505 kts | 134° |
| 2026-04-29 07:32 | 46.98821 | 15.94546 | 37854 ft | 504 kts | 134° |
| 2026-04-29 07:32 | 46.96453 | 15.98280 | 38082 ft | 503 kts | 134° |
| 2026-04-29 07:32 | 46.94089 | 16.02004 | 38303 ft | 502 kts | 134° |
| 2026-04-29 07:32 | 46.91705 | 16.05755 | 38536 ft | 501 kts | 134° |
| 2026-04-29 07:33 | 46.89317 | 16.09506 | 38774 ft | 500 kts | 134° |
| 2026-04-29 07:33 | 46.86967 | 16.13192 | 38935 ft | 500 kts | 134° |
| 2026-04-29 07:33 | 46.82201 | 16.20651 | 39130 ft | 501 kts | 134° |
| 2026-04-29 07:34 | 46.77451 | 16.28067 | 39184 ft | 504 kts | 134° |
| 2026-04-29 07:34 | 46.72649 | 16.35548 | 39179 ft | 502 kts | 134° |
| 2026-04-29 07:35 | 46.68222 | 16.43331 | 39176 ft | 502 kts | 122° |
| 2026-04-29 07:35 | 46.66559 | 16.47810 | 39172 ft | 500 kts | 111° |
| 2026-04-29 07:35 | 46.65224 | 16.52490 | 39199 ft | 499 kts | 110° |
| 2026-04-29 07:36 | 46.62644 | 16.61811 | 39183 ft | 499 kts | 110° |
| 2026-04-29 07:36 | 46.60008 | 16.71187 | 39186 ft | 499 kts | 111° |
| 2026-04-29 07:37 | 46.57346 | 16.80457 | 39189 ft | 499 kts | 111° |
| 2026-04-29 07:37 | 46.54638 | 16.89794 | 39207 ft | 500 kts | 111° |
| 2026-04-29 07:38 | 46.51933 | 16.99078 | 39215 ft | 501 kts | 111° |
| 2026-04-29 07:38 | 46.49220 | 17.08364 | 39213 ft | 502 kts | 112° |
| 2026-04-29 07:39 | 46.46485 | 17.17697 | 39216 ft | 503 kts | 112° |
| 2026-04-29 07:39 | 46.43729 | 17.27066 | 39192 ft | 504 kts | 112° |
| 2026-04-29 07:40 | 46.40979 | 17.36380 | 39186 ft | 504 kts | 112° |
| 2026-04-29 07:40 | 46.38218 | 17.45693 | 39157 ft | 505 kts | 112° |
| 2026-04-29 07:41 | 46.35435 | 17.55047 | 39161 ft | 506 kts | 112° |
| 2026-04-29 07:41 | 46.32650 | 17.64373 | 39152 ft | 506 kts | 112° |
| 2026-04-29 07:42 | 46.29854 | 17.73698 | 39151 ft | 506 kts | 112° |
| 2026-04-29 07:42 | 46.27107 | 17.82831 | 39153 ft | 505 kts | 112° |
| 2026-04-29 07:43 | 46.24266 | 17.92235 | 39159 ft | 505 kts | 112° |
| 2026-04-29 07:43 | 46.21441 | 18.01556 | 39170 ft | 505 kts | 112° |
| 2026-04-29 07:44 | 46.18636 | 18.10778 | 39183 ft | 504 kts | 112° |
| 2026-04-29 07:44 | 46.15808 | 18.20037 | 39193 ft | 503 kts | 112° |
| 2026-04-29 07:45 | 46.12995 | 18.29217 | 39198 ft | 503 kts | 112° |
| 2026-04-29 07:45 | 46.10151 | 18.38465 | 39192 ft | 503 kts | 112° |
| 2026-04-29 07:46 | 46.07318 | 18.47640 | 39184 ft | 501 kts | 113° |
| 2026-04-29 07:46 | 46.04488 | 18.56775 | 39186 ft | 501 kts | 113° |
| 2026-04-29 07:47 | 46.01635 | 18.65953 | 39167 ft | 501 kts | 113° |
| 2026-04-29 07:47 | 45.98783 | 18.75096 | 39149 ft | 501 kts | 113° |
| 2026-04-29 07:48 | 45.95912 | 18.84270 | 39146 ft | 502 kts | 113° |
| 2026-04-29 07:48 | 45.92673 | 18.93114 | 39145 ft | 503 kts | 126° |
| 2026-04-29 07:49 | 45.87990 | 19.00529 | 39154 ft | 501 kts | 138° |
| 2026-04-29 07:49 | 45.82964 | 19.07400 | 39140 ft | 501 kts | 138° |
| 2026-04-29 07:50 | 45.77901 | 19.14346 | 39141 ft | 502 kts | 137° |
| 2026-04-29 07:50 | 45.72894 | 19.21290 | 39129 ft | 503 kts | 137° |
| 2026-04-29 07:51 | 45.67870 | 19.28283 | 39135 ft | 503 kts | 137° |
| 2026-04-29 07:51 | 45.62869 | 19.35229 | 39138 ft | 504 kts | 137° |
| 2026-04-29 07:52 | 45.57830 | 19.42204 | 39143 ft | 504 kts | 138° |
| 2026-04-29 07:52 | 45.52807 | 19.49136 | 39133 ft | 504 kts | 138° |
| 2026-04-29 07:53 | 45.47735 | 19.56117 | 39110 ft | 504 kts | 138° |
| 2026-04-29 07:53 | 45.42701 | 19.63028 | 39134 ft | 504 kts | 138° |
| 2026-04-29 07:54 | 45.37677 | 19.69905 | 39133 ft | 503 kts | 138° |
| 2026-04-29 07:54 | 45.32624 | 19.76806 | 39142 ft | 503 kts | 138° |
| 2026-04-29 07:55 | 45.27557 | 19.83707 | 39131 ft | 503 kts | 138° |
| 2026-04-29 07:55 | 45.22521 | 19.90548 | 39128 ft | 503 kts | 138° |
| 2026-04-29 07:56 | 45.17461 | 19.97405 | 39116 ft | 502 kts | 138° |
| 2026-04-29 07:56 | 45.13257 | 20.03088 | 39122 ft | 502 kts | 138° |
| 2026-04-29 07:57 | 45.07356 | 20.11045 | 39130 ft | 501 kts | 139° |
| 2026-04-29 07:57 | 45.02321 | 20.17814 | 39131 ft | 501 kts | 139° |
| 2026-04-29 07:58 | 44.98101 | 20.23475 | 39187 ft | 501 kts | 139° |
| 2026-04-29 07:58 | 44.93054 | 20.30229 | 39185 ft | 502 kts | 139° |
| 2026-04-29 07:59 | 44.87963 | 20.37025 | 39185 ft | 502 kts | 139° |
| 2026-04-29 07:59 | 44.82902 | 20.43763 | 39187 ft | 502 kts | 139° |
| 2026-04-29 08:00 | 44.77805 | 20.50532 | 39173 ft | 503 kts | 139° |
| 2026-04-29 08:00 | 44.72722 | 20.57266 | 39161 ft | 504 kts | 139° |
| 2026-04-29 08:01 | 44.67605 | 20.64027 | 39136 ft | 504 kts | 139° |
| 2026-04-29 08:01 | 44.62502 | 20.70753 | 39119 ft | 505 kts | 139° |
| 2026-04-29 08:02 | 44.57363 | 20.77509 | 39128 ft | 505 kts | 139° |
| 2026-04-29 08:02 | 44.52240 | 20.84226 | 39124 ft | 505 kts | 139° |
| 2026-04-29 08:03 | 44.47120 | 20.90924 | 39129 ft | 505 kts | 139° |
| 2026-04-29 08:03 | 44.41973 | 20.97640 | 39133 ft | 505 kts | 139° |
| 2026-04-29 08:04 | 44.36859 | 21.04295 | 39138 ft | 504 kts | 139° |
| 2026-04-29 08:04 | 44.31704 | 21.10987 | 39127 ft | 504 kts | 139° |
| 2026-04-29 08:05 | 44.26585 | 21.17616 | 39128 ft | 504 kts | 139° |
| 2026-04-29 08:05 | 44.21453 | 21.24245 | 39132 ft | 503 kts | 139° |
| 2026-04-29 08:06 | 44.16301 | 21.30883 | 39138 ft | 503 kts | 139° |
| 2026-04-29 08:06 | 44.11179 | 21.37466 | 39117 ft | 503 kts | 140° |
| 2026-04-29 08:07 | 44.06019 | 21.44082 | 39128 ft | 502 kts | 140° |
| 2026-04-29 08:07 | 44.00900 | 21.50629 | 39135 ft | 502 kts | 140° |
| 2026-04-29 08:08 | 43.95747 | 21.57203 | 39133 ft | 502 kts | 140° |
| 2026-04-29 08:08 | 43.90621 | 21.63727 | 39129 ft | 502 kts | 140° |
| 2026-04-29 08:09 | 43.85459 | 21.70281 | 39117 ft | 501 kts | 140° |
| 2026-04-29 08:09 | 43.80330 | 21.76777 | 39131 ft | 501 kts | 140° |
| 2026-04-29 08:10 | 43.75171 | 21.83293 | 39131 ft | 501 kts | 140° |
| 2026-04-29 08:10 | 43.70054 | 21.89743 | 39124 ft | 501 kts | 140° |
| 2026-04-29 08:11 | 43.64888 | 21.96238 | 39130 ft | 500 kts | 140° |
| 2026-04-29 08:11 | 43.59752 | 22.02680 | 39110 ft | 500 kts | 140° |
| 2026-04-29 08:12 | 43.54590 | 22.09137 | 39122 ft | 500 kts | 140° |
| 2026-04-29 08:12 | 43.49460 | 22.15540 | 39129 ft | 499 kts | 140° |
| 2026-04-29 08:13 | 43.44301 | 22.21964 | 39128 ft | 499 kts | 140° |
| 2026-04-29 08:13 | 43.39145 | 22.28370 | 39129 ft | 499 kts | 140° |
| 2026-04-29 08:14 | 43.33997 | 22.34750 | 39107 ft | 499 kts | 140° |
| 2026-04-29 08:14 | 43.28844 | 22.41121 | 39118 ft | 499 kts | 140° |
| 2026-04-29 08:15 | 43.23662 | 22.47513 | 39128 ft | 499 kts | 140° |
| 2026-04-29 08:15 | 43.18516 | 22.53845 | 39129 ft | 499 kts | 140° |
| 2026-04-29 08:16 | 43.13367 | 22.60167 | 39124 ft | 499 kts | 140° |
| 2026-04-29 08:16 | 43.08204 | 22.66491 | 39110 ft | 498 kts | 140° |
| 2026-04-29 08:17 | 43.03025 | 22.72820 | 39134 ft | 498 kts | 140° |
| 2026-04-29 08:17 | 42.98143 | 22.79554 | 39127 ft | 500 kts | 127° |
| 2026-04-29 08:18 | 42.94758 | 22.87787 | 39127 ft | 499 kts | 111° |
| 2026-04-29 08:18 | 42.92225 | 22.96563 | 39120 ft | 499 kts | 110° |
| 2026-04-29 08:19 | 42.89679 | 23.05393 | 39125 ft | 499 kts | 110° |
| 2026-04-29 08:19 | 42.87076 | 23.14188 | 39126 ft | 499 kts | 111° |
| 2026-04-29 08:20 | 42.84453 | 23.22931 | 39124 ft | 499 kts | 111° |
| 2026-04-29 08:20 | 42.81831 | 23.31636 | 39135 ft | 499 kts | 111° |
| 2026-04-29 08:21 | 42.79187 | 23.40396 | 39133 ft | 499 kts | 111° |
| 2026-04-29 08:21 | 42.76553 | 23.49096 | 39123 ft | 499 kts | 111° |
| 2026-04-29 08:22 | 42.73891 | 23.57863 | 39129 ft | 499 kts | 111° |
| 2026-04-29 08:22 | 42.71234 | 23.66583 | 39132 ft | 499 kts | 111° |
| 2026-04-29 08:23 | 42.68573 | 23.75287 | 39134 ft | 499 kts | 111° |
| 2026-04-29 08:23 | 42.65926 | 23.83984 | 39135 ft | 499 kts | 110° |
| 2026-04-29 08:24 | 42.63905 | 23.91343 | 39153 ft | 499 kts | 109° |